sensor_id;sensor_type;location;lat;lon;timestamp;pressure;altitude;pressure_sealevel;temperature;humidity
80620;BME280;69979;53.682;-2.690;2023-12-29T00:01:46;99411.93;;;4.29;72.71
80620;BME280;69979;53.682;-2.690;2023-12-29T00:04:11;99415.22;;;3.99;73.12
80620;BME280;69979;53.682;-2.690;2023-12-29T00:06:38;99424.10;;;4.15;72.04
80620;BME280;69979;53.682;-2.690;2023-12-29T00:09:03;99424.93;;;4.54;71.41
80620;BME280;69979;53.682;-2.690;2023-12-29T00:11:29;99426.11;;;4.24;72.35
80620;BME280;69979;53.682;-2.690;2023-12-29T00:13:54;99429.13;;;4.16;72.42
80620;BME280;69979;53.682;-2.690;2023-12-29T00:16:20;99435.32;;;3.95;71.86
80620;BME280;69979;53.682;-2.690;2023-12-29T00:18:45;99428.90;;;4.04;70.55
80620;BME280;69979;53.682;-2.690;2023-12-29T00:21:11;99435.82;;;4.43;70.67
80620;BME280;69979;53.682;-2.690;2023-12-29T00:23:36;99423.26;;;4.06;70.91
80620;BME280;69979;53.682;-2.690;2023-12-29T00:26:02;99419.91;;;4.47;69.65
80620;BME280;69979;53.682;-2.690;2023-12-29T00:28:28;99413.41;;;4.14;69.79
80620;BME280;69979;53.682;-2.690;2023-12-29T00:30:53;99424.94;;;4.11;70.21
80620;BME280;69979;53.682;-2.690;2023-12-29T00:33:18;99437.33;;;4.04;71.11
80620;BME280;69979;53.682;-2.690;2023-12-29T00:35:44;99418.65;;;3.74;72.39
80620;BME280;69979;53.682;-2.690;2023-12-29T00:38:10;99409.95;;;4.14;71.58
80620;BME280;69979;53.682;-2.690;2023-12-29T00:40:35;99414.61;;;3.85;71.62
80620;BME280;69979;53.682;-2.690;2023-12-29T00:43:02;99403.68;;;3.74;72.12
80620;BME280;69979;53.682;-2.690;2023-12-29T00:45:27;99398.51;;;4.05;72.26
80620;BME280;69979;53.682;-2.690;2023-12-29T00:47:53;99403.94;;;4.13;70.44
80620;BME280;69979;53.682;-2.690;2023-12-29T00:50:18;99402.48;;;3.93;71.54
80620;BME280;69979;53.682;-2.690;2023-12-29T00:52:44;99411.81;;;3.85;70.96
80620;BME280;69979;53.682;-2.690;2023-12-29T00:55:10;99396.87;;;4.33;70.47
80620;BME280;69979;53.682;-2.690;2023-12-29T00:57:35;99405.09;;;4.31;69.64
80620;BME280;69979;53.682;-2.690;2023-12-29T01:00:00;99410.58;;;4.16;70.64
80620;BME280;69979;53.682;-2.690;2023-12-29T01:02:26;99397.87;;;4.00;70.27
80620;BME280;69979;53.682;-2.690;2023-12-29T01:04:51;99415.61;;;3.99;70.38
80620;BME280;69979;53.682;-2.690;2023-12-29T01:07:17;99426.80;;;3.92;70.65
80620;BME280;69979;53.682;-2.690;2023-12-29T01:09:42;99410.57;;;4.17;69.77
80620;BME280;69979;53.682;-2.690;2023-12-29T01:12:08;99402.91;;;4.36;70.06
80620;BME280;69979;53.682;-2.690;2023-12-29T01:14:34;99411.08;;;4.24;70.90
80620;BME280;69979;53.682;-2.690;2023-12-29T01:17:00;99411.14;;;4.21;70.92
80620;BME280;69979;53.682;-2.690;2023-12-29T01:19:25;99407.35;;;4.68;69.60
80620;BME280;69979;53.682;-2.690;2023-12-29T01:21:51;99419.37;;;4.41;71.04
80620;BME280;69979;53.682;-2.690;2023-12-29T01:24:16;99417.59;;;3.95;71.59
80620;BME280;69979;53.682;-2.690;2023-12-29T01:26:42;99420.40;;;4.10;71.66
80620;BME280;69979;53.682;-2.690;2023-12-29T01:29:08;99401.26;;;4.27;70.90
80620;BME280;69979;53.682;-2.690;2023-12-29T01:31:34;99408.98;;;4.37;70.26
80620;BME280;69979;53.682;-2.690;2023-12-29T01:33:59;99409.36;;;4.23;70.83
80620;BME280;69979;53.682;-2.690;2023-12-29T01:36:25;99411.26;;;3.97;71.64
80620;BME280;69979;53.682;-2.690;2023-12-29T01:38:50;99425.72;;;4.36;70.49
80620;BME280;69979;53.682;-2.690;2023-12-29T01:41:21;99418.82;;;3.99;70.78
80620;BME280;69979;53.682;-2.690;2023-12-29T01:46:07;99412.65;;;3.99;70.15
80620;BME280;69979;53.682;-2.690;2023-12-29T01:48:32;99419.88;;;4.31;70.11
80620;BME280;69979;53.682;-2.690;2023-12-29T01:50:58;99413.51;;;3.92;70.12
80620;BME280;69979;53.682;-2.690;2023-12-29T01:53:24;99448.49;;;3.75;71.42
80620;BME280;69979;53.682;-2.690;2023-12-29T01:55:50;99429.97;;;4.49;70.26
80620;BME280;69979;53.682;-2.690;2023-12-29T01:58:16;99425.40;;;4.37;70.40
80620;BME280;69979;53.682;-2.690;2023-12-29T02:00:41;99427.13;;;4.16;70.96
80620;BME280;69979;53.682;-2.690;2023-12-29T02:03:07;99423.38;;;3.66;71.79
80620;BME280;69979;53.682;-2.690;2023-12-29T02:05:34;99425.23;;;3.97;71.68
80620;BME280;69979;53.682;-2.690;2023-12-29T02:07:58;99432.63;;;3.76;71.67
80620;BME280;69979;53.682;-2.690;2023-12-29T02:10:24;99441.91;;;3.79;71.20
80620;BME280;69979;53.682;-2.690;2023-12-29T02:12:50;99422.17;;;4.06;71.60
80620;BME280;69979;53.682;-2.690;2023-12-29T02:15:15;99428.97;;;3.84;72.56
80620;BME280;69979;53.682;-2.690;2023-12-29T02:17:43;99429.43;;;3.67;72.00
80620;BME280;69979;53.682;-2.690;2023-12-29T02:20:08;99460.82;;;3.88;71.37
80620;BME280;69979;53.682;-2.690;2023-12-29T02:22:31;99437.71;;;3.73;71.48
80620;BME280;69979;53.682;-2.690;2023-12-29T02:24:56;99427.80;;;3.83;71.30
80620;BME280;69979;53.682;-2.690;2023-12-29T02:27:31;99427.90;;;3.71;70.60
80620;BME280;69979;53.682;-2.690;2023-12-29T02:29:56;99450.17;;;3.73;72.42
80620;BME280;69979;53.682;-2.690;2023-12-29T02:32:18;99426.73;;;3.82;72.18
80620;BME280;69979;53.682;-2.690;2023-12-29T02:34:40;99437.81;;;4.22;70.94
80620;BME280;69979;53.682;-2.690;2023-12-29T02:37:05;99442.32;;;4.21;70.60
80620;BME280;69979;53.682;-2.690;2023-12-29T02:39:31;99438.80;;;4.13;71.07
80620;BME280;69979;53.682;-2.690;2023-12-29T02:41:56;99448.55;;;3.91;72.06
80620;BME280;69979;53.682;-2.690;2023-12-29T02:44:22;99440.78;;;4.07;71.70
80620;BME280;69979;53.682;-2.690;2023-12-29T02:46:47;99440.05;;;3.96;72.09
80620;BME280;69979;53.682;-2.690;2023-12-29T02:49:13;99441.94;;;3.73;71.38
80620;BME280;69979;53.682;-2.690;2023-12-29T02:51:39;99448.59;;;3.62;72.77
80620;BME280;69979;53.682;-2.690;2023-12-29T02:54:04;99441.63;;;3.86;72.72
80620;BME280;69979;53.682;-2.690;2023-12-29T02:56:30;99446.07;;;3.59;73.05
80620;BME280;69979;53.682;-2.690;2023-12-29T02:58:55;99443.91;;;3.76;71.74
80620;BME280;69979;53.682;-2.690;2023-12-29T03:01:21;99458.63;;;3.58;72.98
80620;BME280;69979;53.682;-2.690;2023-12-29T03:03:46;99463.59;;;3.78;73.40
80620;BME280;69979;53.682;-2.690;2023-12-29T03:06:12;99460.00;;;3.36;74.51
80620;BME280;69979;53.682;-2.690;2023-12-29T03:08:37;99462.71;;;3.45;74.44
80620;BME280;69979;53.682;-2.690;2023-12-29T03:11:03;99446.17;;;3.69;73.17
80620;BME280;69979;53.682;-2.690;2023-12-29T03:13:29;99448.48;;;3.69;73.00
80620;BME280;69979;53.682;-2.690;2023-12-29T03:15:55;99456.75;;;4.41;71.41
80620;BME280;69979;53.682;-2.690;2023-12-29T03:18:20;99454.90;;;3.76;71.32
80620;BME280;69979;53.682;-2.690;2023-12-29T03:20:46;99449.87;;;4.13;71.51
80620;BME280;69979;53.682;-2.690;2023-12-29T03:23:12;99442.66;;;3.45;72.98
80620;BME280;69979;53.682;-2.690;2023-12-29T03:25:38;99456.69;;;3.78;72.03
80620;BME280;69979;53.682;-2.690;2023-12-29T03:28:04;99452.60;;;3.46;72.35
80620;BME280;69979;53.682;-2.690;2023-12-29T03:30:29;99455.20;;;3.56;71.80
80620;BME280;69979;53.682;-2.690;2023-12-29T03:32:54;99453.67;;;3.47;72.40
80620;BME280;69979;53.682;-2.690;2023-12-29T03:35:19;99453.81;;;4.11;71.07
80620;BME280;69979;53.682;-2.690;2023-12-29T03:37:45;99460.78;;;3.67;71.86
80620;BME280;69979;53.682;-2.690;2023-12-29T03:40:11;99447.81;;;3.85;71.72
80620;BME280;69979;53.682;-2.690;2023-12-29T03:42:36;99452.40;;;3.87;70.89
80620;BME280;69979;53.682;-2.690;2023-12-29T03:45:02;99442.48;;;4.23;69.68
80620;BME280;69979;53.682;-2.690;2023-12-29T03:47:27;99443.26;;;4.27;69.78
80620;BME280;69979;53.682;-2.690;2023-12-29T03:49:53;99453.11;;;3.58;71.82
80620;BME280;69979;53.682;-2.690;2023-12-29T03:52:19;99450.67;;;3.86;71.70
80620;BME280;69979;53.682;-2.690;2023-12-29T03:54:44;99445.91;;;3.90;71.63
80620;BME280;69979;53.682;-2.690;2023-12-29T03:57:10;99455.83;;;3.80;70.33
80620;BME280;69979;53.682;-2.690;2023-12-29T03:59:36;99450.55;;;4.26;70.26
80620;BME280;69979;53.682;-2.690;2023-12-29T04:02:02;99443.77;;;3.87;70.93
80620;BME280;69979;53.682;-2.690;2023-12-29T04:04:27;99464.84;;;4.13;70.33
80620;BME280;69979;53.682;-2.690;2023-12-29T04:06:52;99455.82;;;3.78;71.82
80620;BME280;69979;53.682;-2.690;2023-12-29T04:09:18;99455.13;;;3.57;72.62
80620;BME280;69979;53.682;-2.690;2023-12-29T04:11:43;99447.40;;;3.58;72.35
80620;BME280;69979;53.682;-2.690;2023-12-29T04:14:09;99447.52;;;3.55;72.11
80620;BME280;69979;53.682;-2.690;2023-12-29T04:16:37;99449.23;;;4.09;71.05
80620;BME280;69979;53.682;-2.690;2023-12-29T04:19:00;99452.86;;;3.93;70.60
80620;BME280;69979;53.682;-2.690;2023-12-29T04:21:25;99472.66;;;3.59;71.56
80620;BME280;69979;53.682;-2.690;2023-12-29T04:23:51;99454.29;;;3.81;71.23
80620;BME280;69979;53.682;-2.690;2023-12-29T04:26:17;99459.75;;;3.61;71.56
80620;BME280;69979;53.682;-2.690;2023-12-29T04:28:42;99453.16;;;3.61;70.78
80620;BME280;69979;53.682;-2.690;2023-12-29T04:31:08;99461.57;;;4.10;69.61
80620;BME280;69979;53.682;-2.690;2023-12-29T04:33:34;99459.26;;;3.47;71.23
80620;BME280;69979;53.682;-2.690;2023-12-29T04:35:59;99473.74;;;3.75;69.92
80620;BME280;69979;53.682;-2.690;2023-12-29T04:38:25;99458.55;;;3.68;70.96
80620;BME280;69979;53.682;-2.690;2023-12-29T04:40:51;99466.65;;;3.66;69.94
80620;BME280;69979;53.682;-2.690;2023-12-29T04:43:16;99460.16;;;4.23;69.87
80620;BME280;69979;53.682;-2.690;2023-12-29T04:45:42;99471.79;;;4.42;68.93
80620;BME280;69979;53.682;-2.690;2023-12-29T04:48:07;99464.23;;;3.64;70.61
80620;BME280;69979;53.682;-2.690;2023-12-29T04:50:33;99478.40;;;3.83;70.18
80620;BME280;69979;53.682;-2.690;2023-12-29T04:52:58;99485.60;;;3.82;70.91
80620;BME280;69979;53.682;-2.690;2023-12-29T04:55:24;99480.98;;;3.47;72.08
80620;BME280;69979;53.682;-2.690;2023-12-29T04:57:50;99476.76;;;4.15;70.11
80620;BME280;69979;53.682;-2.690;2023-12-29T05:00:16;99471.26;;;3.94;71.15
80620;BME280;69979;53.682;-2.690;2023-12-29T05:02:40;99488.95;;;3.74;72.23
80620;BME280;69979;53.682;-2.690;2023-12-29T05:05:06;99482.71;;;3.35;73.48
80620;BME280;69979;53.682;-2.690;2023-12-29T05:07:32;99482.59;;;3.29;74.41
80620;BME280;69979;53.682;-2.690;2023-12-29T05:09:57;99484.89;;;3.38;72.40
80620;BME280;69979;53.682;-2.690;2023-12-29T05:12:23;99491.09;;;3.27;73.44
80620;BME280;69979;53.682;-2.690;2023-12-29T05:14:49;99498.39;;;3.37;73.03
80620;BME280;69979;53.682;-2.690;2023-12-29T05:17:14;99480.07;;;3.69;72.88
80620;BME280;69979;53.682;-2.690;2023-12-29T05:19:40;99480.99;;;3.49;73.35
80620;BME280;69979;53.682;-2.690;2023-12-29T05:22:05;99490.27;;;3.24;74.16
80620;BME280;69979;53.682;-2.690;2023-12-29T05:24:31;99496.35;;;3.38;73.81
80620;BME280;69979;53.682;-2.690;2023-12-29T05:26:57;99489.29;;;3.75;73.46
80620;BME280;69979;53.682;-2.690;2023-12-29T05:29:22;99499.48;;;2.87;74.87
80620;BME280;69979;53.682;-2.690;2023-12-29T05:31:48;99487.75;;;3.59;74.04
80620;BME280;69979;53.682;-2.690;2023-12-29T05:34:13;99490.57;;;3.18;75.97
80620;BME280;69979;53.682;-2.690;2023-12-29T05:36:39;99503.78;;;3.01;76.04
80620;BME280;69979;53.682;-2.690;2023-12-29T05:39:06;99503.50;;;3.71;74.16
80620;BME280;69979;53.682;-2.690;2023-12-29T05:41:31;99505.58;;;3.25;75.28
80620;BME280;69979;53.682;-2.690;2023-12-29T05:43:56;99499.45;;;3.12;75.03
80620;BME280;69979;53.682;-2.690;2023-12-29T05:46:21;99532.46;;;3.20;74.92
80620;BME280;69979;53.682;-2.690;2023-12-29T05:48:47;99508.36;;;3.63;74.75
80620;BME280;69979;53.682;-2.690;2023-12-29T05:51:13;99501.47;;;4.02;73.04
80620;BME280;69979;53.682;-2.690;2023-12-29T05:53:39;99518.31;;;3.77;72.49
80620;BME280;69979;53.682;-2.690;2023-12-29T05:56:04;99520.14;;;3.52;73.65
80620;BME280;69979;53.682;-2.690;2023-12-29T05:58:29;99518.12;;;3.61;73.81
80620;BME280;69979;53.682;-2.690;2023-12-29T06:00:55;99523.69;;;3.09;74.80
80620;BME280;69979;53.682;-2.690;2023-12-29T06:03:20;99526.48;;;3.50;74.48
80620;BME280;69979;53.682;-2.690;2023-12-29T06:05:46;99523.10;;;3.57;73.47
80620;BME280;69979;53.682;-2.690;2023-12-29T06:08:11;99521.01;;;3.81;72.28
80620;BME280;69979;53.682;-2.690;2023-12-29T06:10:37;99527.16;;;3.71;71.95
80620;BME280;69979;53.682;-2.690;2023-12-29T06:13:02;99521.50;;;4.02;70.72
80620;BME280;69979;53.682;-2.690;2023-12-29T06:15:27;99527.09;;;3.78;72.46
80620;BME280;69979;53.682;-2.690;2023-12-29T06:17:53;99534.95;;;3.86;71.36
80620;BME280;69979;53.682;-2.690;2023-12-29T06:20:18;99527.25;;;4.00;70.93
80620;BME280;69979;53.682;-2.690;2023-12-29T06:22:44;99535.46;;;3.38;72.67
80620;BME280;69979;53.682;-2.690;2023-12-29T06:25:09;99531.03;;;3.62;70.98
80620;BME280;69979;53.682;-2.690;2023-12-29T06:27:35;99537.47;;;4.10;70.02
80620;BME280;69979;53.682;-2.690;2023-12-29T06:30:00;99544.31;;;4.38;69.12
80620;BME280;69979;53.682;-2.690;2023-12-29T06:32:25;99553.27;;;4.43;68.35
80620;BME280;69979;53.682;-2.690;2023-12-29T06:34:51;99573.75;;;3.60;71.74
80620;BME280;69979;53.682;-2.690;2023-12-29T06:37:17;99560.51;;;3.51;73.31
80620;BME280;69979;53.682;-2.690;2023-12-29T06:39:42;99566.45;;;3.27;73.40
80620;BME280;69979;53.682;-2.690;2023-12-29T06:42:08;99563.72;;;3.66;72.75
80620;BME280;69979;53.682;-2.690;2023-12-29T06:44:33;99576.60;;;3.59;72.74
80620;BME280;69979;53.682;-2.690;2023-12-29T06:46:59;99576.97;;;3.68;70.86
80620;BME280;69979;53.682;-2.690;2023-12-29T06:49:24;99600.83;;;3.87;71.50
80620;BME280;69979;53.682;-2.690;2023-12-29T06:51:51;99594.91;;;3.35;70.70
80620;BME280;69979;53.682;-2.690;2023-12-29T06:54:15;99582.62;;;3.37;69.95
80620;BME280;69979;53.682;-2.690;2023-12-29T06:56:41;99595.17;;;3.50;68.36
80620;BME280;69979;53.682;-2.690;2023-12-29T06:59:06;99588.09;;;3.46;68.26
80620;BME280;69979;53.682;-2.690;2023-12-29T07:01:32;99594.62;;;3.45;68.20
80620;BME280;69979;53.682;-2.690;2023-12-29T07:03:58;99604.63;;;3.65;68.23
80620;BME280;69979;53.682;-2.690;2023-12-29T07:06:23;99603.24;;;3.39;68.59
80620;BME280;69979;53.682;-2.690;2023-12-29T07:08:49;99606.63;;;3.88;67.53
80620;BME280;69979;53.682;-2.690;2023-12-29T07:11:14;99619.46;;;3.40;70.68
80620;BME280;69979;53.682;-2.690;2023-12-29T07:13:40;99622.34;;;3.87;70.21
80620;BME280;69979;53.682;-2.690;2023-12-29T07:16:06;99620.17;;;3.67;70.47
80620;BME280;69979;53.682;-2.690;2023-12-29T07:18:31;99618.84;;;3.44;70.03
80620;BME280;69979;53.682;-2.690;2023-12-29T07:20:57;99625.82;;;3.60;67.42
80620;BME280;69979;53.682;-2.690;2023-12-29T07:23:23;99623.19;;;3.90;65.72
80620;BME280;69979;53.682;-2.690;2023-12-29T07:25:48;99627.03;;;3.60;65.80
80620;BME280;69979;53.682;-2.690;2023-12-29T07:28:14;99637.77;;;3.23;67.97
80620;BME280;69979;53.682;-2.690;2023-12-29T07:30:40;99635.94;;;3.23;67.51
80620;BME280;69979;53.682;-2.690;2023-12-29T07:33:05;99632.43;;;3.39;67.93
80620;BME280;69979;53.682;-2.690;2023-12-29T07:35:31;99630.56;;;3.78;66.68
80620;BME280;69979;53.682;-2.690;2023-12-29T07:37:57;99639.07;;;3.63;67.05
80620;BME280;69979;53.682;-2.690;2023-12-29T07:40:23;99631.35;;;3.89;66.95
80620;BME280;69979;53.682;-2.690;2023-12-29T07:42:48;99654.47;;;3.53;66.93
80620;BME280;69979;53.682;-2.690;2023-12-29T07:45:14;99648.78;;;3.31;67.75
80620;BME280;69979;53.682;-2.690;2023-12-29T07:47:40;99640.37;;;3.34;66.98
80620;BME280;69979;53.682;-2.690;2023-12-29T07:50:06;99632.55;;;3.35;67.01
80620;BME280;69979;53.682;-2.690;2023-12-29T07:52:31;99642.67;;;3.58;67.69
80620;BME280;69979;53.682;-2.690;2023-12-29T07:54:56;99635.54;;;3.82;67.10
80620;BME280;69979;53.682;-2.690;2023-12-29T07:57:21;99647.95;;;3.84;67.55
80620;BME280;69979;53.682;-2.690;2023-12-29T07:59:47;99647.60;;;3.67;67.43
80620;BME280;69979;53.682;-2.690;2023-12-29T08:02:13;99640.43;;;3.89;66.70
80620;BME280;69979;53.682;-2.690;2023-12-29T08:04:38;99642.45;;;3.91;66.99
80620;BME280;69979;53.682;-2.690;2023-12-29T08:07:04;99655.61;;;3.84;68.09
80620;BME280;69979;53.682;-2.690;2023-12-29T08:09:29;99664.73;;;3.59;69.59
80620;BME280;69979;53.682;-2.690;2023-12-29T08:11:55;99687.77;;;3.91;68.61
80620;BME280;69979;53.682;-2.690;2023-12-29T08:14:21;99671.35;;;3.66;69.52
80620;BME280;69979;53.682;-2.690;2023-12-29T08:16:46;99666.54;;;3.68;68.78
80620;BME280;69979;53.682;-2.690;2023-12-29T08:19:12;99666.28;;;4.00;68.74
80620;BME280;69979;53.682;-2.690;2023-12-29T08:21:38;99675.92;;;3.59;68.25
80620;BME280;69979;53.682;-2.690;2023-12-29T08:24:03;99679.58;;;4.20;66.38
80620;BME280;69979;53.682;-2.690;2023-12-29T08:26:29;99672.12;;;3.91;65.12
80620;BME280;69979;53.682;-2.690;2023-12-29T08:28:54;99681.44;;;3.79;65.52
80620;BME280;69979;53.682;-2.690;2023-12-29T08:31:25;99678.98;;;3.72;65.15
80620;BME280;69979;53.682;-2.690;2023-12-29T08:33:46;99690.78;;;3.71;65.12
80620;BME280;69979;53.682;-2.690;2023-12-29T08:36:12;99681.18;;;3.44;65.80
80620;BME280;69979;53.682;-2.690;2023-12-29T08:38:37;99690.86;;;3.67;65.57
80620;BME280;69979;53.682;-2.690;2023-12-29T08:41:03;99705.33;;;3.31;67.37
80620;BME280;69979;53.682;-2.690;2023-12-29T08:43:28;99699.13;;;3.54;66.11
80620;BME280;69979;53.682;-2.690;2023-12-29T08:45:54;99705.44;;;3.32;66.49
80620;BME280;69979;53.682;-2.690;2023-12-29T08:48:19;99701.58;;;3.35;65.70
80620;BME280;69979;53.682;-2.690;2023-12-29T08:50:45;99701.94;;;3.36;65.89
80620;BME280;69979;53.682;-2.690;2023-12-29T08:53:11;99713.71;;;3.27;66.49
80620;BME280;69979;53.682;-2.690;2023-12-29T08:55:37;99710.63;;;3.40;65.71
80620;BME280;69979;53.682;-2.690;2023-12-29T08:58:02;99706.97;;;3.29;65.26
80620;BME280;69979;53.682;-2.690;2023-12-29T09:00:28;99717.57;;;3.86;64.97
80620;BME280;69979;53.682;-2.690;2023-12-29T09:02:53;99724.93;;;3.65;65.36
80620;BME280;69979;53.682;-2.690;2023-12-29T09:05:19;99721.15;;;3.75;65.87
80620;BME280;69979;53.682;-2.690;2023-12-29T09:07:44;99724.08;;;3.39;65.38
80620;BME280;69979;53.682;-2.690;2023-12-29T09:10:10;99727.90;;;2.97;67.87
80620;BME280;69979;53.682;-2.690;2023-12-29T09:12:36;99727.86;;;3.38;68.00
80620;BME280;69979;53.682;-2.690;2023-12-29T09:15:02;99735.55;;;3.29;68.53
80620;BME280;69979;53.682;-2.690;2023-12-29T09:17:27;99743.61;;;3.64;67.29
80620;BME280;69979;53.682;-2.690;2023-12-29T09:19:53;99736.41;;;3.14;68.98
80620;BME280;69979;53.682;-2.690;2023-12-29T09:22:18;99749.12;;;3.40;67.99
80620;BME280;69979;53.682;-2.690;2023-12-29T09:24:43;99756.10;;;3.36;68.75
80620;BME280;69979;53.682;-2.690;2023-12-29T09:27:09;99743.07;;;3.13;68.85
80620;BME280;69979;53.682;-2.690;2023-12-29T09:29:35;99757.33;;;3.21;68.39
80620;BME280;69979;53.682;-2.690;2023-12-29T09:32:00;99771.07;;;3.53;67.27
80620;BME280;69979;53.682;-2.690;2023-12-29T09:34:26;99757.33;;;3.28;68.76
80620;BME280;69979;53.682;-2.690;2023-12-29T09:36:51;99765.43;;;3.10;67.75
80620;BME280;69979;53.682;-2.690;2023-12-29T09:39:17;99760.26;;;3.86;64.98
80620;BME280;69979;53.682;-2.690;2023-12-29T09:41:46;99771.58;;;3.51;66.49
80620;BME280;69979;53.682;-2.690;2023-12-29T09:44:13;99769.97;;;3.96;65.71
80620;BME280;69979;53.682;-2.690;2023-12-29T09:46:35;99767.92;;;3.56;67.31
80620;BME280;69979;53.682;-2.690;2023-12-29T09:49:03;99767.93;;;4.15;65.67
80620;BME280;69979;53.682;-2.690;2023-12-29T09:51:26;99767.37;;;3.52;67.13
80620;BME280;69979;53.682;-2.690;2023-12-29T09:53:51;99767.73;;;3.04;68.99
80620;BME280;69979;53.682;-2.690;2023-12-29T09:56:18;99764.97;;;4.25;66.85
80620;BME280;69979;53.682;-2.690;2023-12-29T09:58:43;99772.85;;;3.25;69.17
80620;BME280;69979;53.682;-2.690;2023-12-29T10:01:08;99768.14;;;3.37;69.25
80620;BME280;69979;53.682;-2.690;2023-12-29T10:03:34;99762.57;;;3.38;68.94
80620;BME280;69979;53.682;-2.690;2023-12-29T10:06:00;99776.95;;;3.22;68.83
80620;BME280;69979;53.682;-2.690;2023-12-29T10:08:26;99768.42;;;3.73;68.32
80620;BME280;69979;53.682;-2.690;2023-12-29T10:10:51;99771.70;;;3.97;66.64
80620;BME280;69979;53.682;-2.690;2023-12-29T10:13:16;99770.29;;;4.07;67.06
80620;BME280;69979;53.682;-2.690;2023-12-29T10:15:47;99773.79;;;4.11;66.59
80620;BME280;69979;53.682;-2.690;2023-12-29T10:18:11;99776.89;;;4.72;65.04
80620;BME280;69979;53.682;-2.690;2023-12-29T10:20:41;99788.57;;;3.68;68.23
80620;BME280;69979;53.682;-2.690;2023-12-29T10:23:05;99783.37;;;3.99;67.39
80620;BME280;69979;53.682;-2.690;2023-12-29T10:25:23;99789.54;;;3.81;67.37
80620;BME280;69979;53.682;-2.690;2023-12-29T10:27:49;99795.17;;;3.67;67.50
80620;BME280;69979;53.682;-2.690;2023-12-29T10:30:15;99796.27;;;3.69;65.78
80620;BME280;69979;53.682;-2.690;2023-12-29T10:32:40;99809.21;;;4.27;64.66
80620;BME280;69979;53.682;-2.690;2023-12-29T10:35:11;99812.01;;;3.43;67.57
80620;BME280;69979;53.682;-2.690;2023-12-29T10:37:32;99819.49;;;4.32;63.59
80620;BME280;69979;53.682;-2.690;2023-12-29T10:39:58;99820.97;;;4.14;66.16
80620;BME280;69979;53.682;-2.690;2023-12-29T10:42:23;99817.02;;;3.45;67.71
80620;BME280;69979;53.682;-2.690;2023-12-29T10:47:15;99819.52;;;4.62;65.26
80620;BME280;69979;53.682;-2.690;2023-12-29T10:49:41;99816.20;;;3.75;67.21
80620;BME280;69979;53.682;-2.690;2023-12-29T10:52:11;99820.87;;;3.89;67.20
80620;BME280;69979;53.682;-2.690;2023-12-29T10:54:37;99837.15;;;3.91;67.46
80620;BME280;69979;53.682;-2.690;2023-12-29T10:57:02;99826.42;;;3.70;68.92
80620;BME280;69979;53.682;-2.690;2023-12-29T10:59:23;99828.77;;;3.88;69.02
80620;BME280;69979;53.682;-2.690;2023-12-29T11:01:48;99833.90;;;3.43;69.69
80620;BME280;69979;53.682;-2.690;2023-12-29T11:04:14;99829.26;;;3.53;69.37
80620;BME280;69979;53.682;-2.690;2023-12-29T11:06:41;99828.74;;;4.19;67.42
80620;BME280;69979;53.682;-2.690;2023-12-29T11:09:06;99825.99;;;4.27;67.40
80620;BME280;69979;53.682;-2.690;2023-12-29T11:11:32;99827.82;;;4.48;67.01
80620;BME280;69979;53.682;-2.690;2023-12-29T11:13:56;99824.98;;;3.81;69.32
80620;BME280;69979;53.682;-2.690;2023-12-29T11:16:23;99836.04;;;4.59;65.94
80620;BME280;69979;53.682;-2.690;2023-12-29T11:18:49;99834.75;;;4.60;65.74
80620;BME280;69979;53.682;-2.690;2023-12-29T11:21:13;99837.84;;;4.37;68.31
80620;BME280;69979;53.682;-2.690;2023-12-29T11:23:39;99841.99;;;4.26;70.83
80620;BME280;69979;53.682;-2.690;2023-12-29T11:26:04;99831.61;;;4.57;70.92
80620;BME280;69979;53.682;-2.690;2023-12-29T11:28:30;99828.39;;;5.03;68.41
80620;BME280;69979;53.682;-2.690;2023-12-29T11:30:55;99828.60;;;4.57;71.38
80620;BME280;69979;53.682;-2.690;2023-12-29T11:33:24;99825.67;;;4.88;69.96
80620;BME280;69979;53.682;-2.690;2023-12-29T11:35:50;99836.28;;;4.19;70.30
80620;BME280;69979;53.682;-2.690;2023-12-29T11:38:26;99822.56;;;4.69;68.47
80620;BME280;69979;53.682;-2.690;2023-12-29T11:40:42;99831.14;;;4.19;67.08
80620;BME280;69979;53.682;-2.690;2023-12-29T11:43:08;99831.91;;;4.50;67.19
80620;BME280;69979;53.682;-2.690;2023-12-29T11:45:30;99821.13;;;4.10;68.10
80620;BME280;69979;53.682;-2.690;2023-12-29T11:47:55;99822.18;;;4.24;68.39
80620;BME280;69979;53.682;-2.690;2023-12-29T11:50:29;99834.27;;;4.34;70.38
80620;BME280;69979;53.682;-2.690;2023-12-29T11:52:46;99825.54;;;5.09;69.73
80620;BME280;69979;53.682;-2.690;2023-12-29T11:55:13;99839.37;;;4.11;72.63
80620;BME280;69979;53.682;-2.690;2023-12-29T11:57:37;99825.45;;;4.74;72.08
80620;BME280;69979;53.682;-2.690;2023-12-29T12:00:03;99819.20;;;4.61;72.35
80620;BME280;69979;53.682;-2.690;2023-12-29T12:02:28;99818.47;;;5.00;70.90
80620;BME280;69979;53.682;-2.690;2023-12-29T12:04:54;99833.21;;;4.48;72.73
80620;BME280;69979;53.682;-2.690;2023-12-29T12:09:45;99822.41;;;4.32;72.24
80620;BME280;69979;53.682;-2.690;2023-12-29T12:12:11;99832.13;;;4.30;73.97
80620;BME280;69979;53.682;-2.690;2023-12-29T12:14:49;99834.53;;;4.26;73.18
80620;BME280;69979;53.682;-2.690;2023-12-29T12:17:03;99833.61;;;3.91;74.76
80620;BME280;69979;53.682;-2.690;2023-12-29T12:19:33;99827.85;;;4.57;72.90
80620;BME280;69979;53.682;-2.690;2023-12-29T12:21:54;99829.48;;;4.95;71.84
80620;BME280;69979;53.682;-2.690;2023-12-29T12:24:19;99832.08;;;4.20;73.95
80620;BME280;69979;53.682;-2.690;2023-12-29T12:26:45;99824.78;;;3.89;73.76
80620;BME280;69979;53.682;-2.690;2023-12-29T12:29:26;99825.13;;;2.88;70.75
80620;BME280;69979;53.682;-2.690;2023-12-29T12:31:51;99813.21;;;5.11;67.42
80620;BME280;69979;53.682;-2.690;2023-12-29T12:34:05;99814.74;;;5.02;66.08
80620;BME280;69979;53.682;-2.690;2023-12-29T12:36:31;99821.05;;;4.69;67.21
80620;BME280;69979;53.682;-2.690;2023-12-29T12:38:57;99812.41;;;4.22;69.76
80620;BME280;69979;53.682;-2.690;2023-12-29T12:41:23;99802.38;;;5.16;65.24
80620;BME280;69979;53.682;-2.690;2023-12-29T12:43:53;99796.73;;;4.83;65.40
80620;BME280;69979;53.682;-2.690;2023-12-29T12:46:14;99802.17;;;4.40;66.14
80620;BME280;69979;53.682;-2.690;2023-12-29T12:48:42;99797.83;;;4.57;67.55
80620;BME280;69979;53.682;-2.690;2023-12-29T12:51:04;99797.77;;;4.69;68.59
80620;BME280;69979;53.682;-2.690;2023-12-29T12:53:30;99797.94;;;5.14;68.03
80620;BME280;69979;53.682;-2.690;2023-12-29T12:55:56;99802.22;;;4.17;70.10
80620;BME280;69979;53.682;-2.690;2023-12-29T12:58:21;99797.77;;;4.12;70.40